Terminal Aerodrome Forecast
Issued by NWS

Home | Current Version | Previous Version | Text Only | Print | Product List | Glossary On
Versions: 1 2 3 4 5 6 7 8 9 10 11 12 13 14 15
577
FTUS45 KRIW 311124
TAFCOD
TAF
KCOD 311124Z 3112/0112 VRB05KT P6SM SKC
     FM311600 02011KT P6SM FEW060
     FM312000 02011KT P6SM VCSH BKN060
     FM010200 36008KT P6SM SCT070
     FM010600 VRB05KT P6SM SKC
      AMD LTD TO CLD VIS AND WIND=

USA.gov is the U.S. government's official web portal to all federal, state and local government web resources and services.